Paint Rock, TX (76866)

4:43 AM CDT on May 29, 2017 (GMT -0500)
Mereta Texas Campbell Farm | | Change Station

Elev 1729 ft 31.47 °N, 100.12 °W | Updated 1 minute ago

Overcast
Overcast
65.9 °F
Feels Like 65.9 °F
N
0.0
Wind Variable Wind from North
Gusts 5.0 mph

Today
High -- | Low -- °F
--% Chance of Precip.
Yesterday
High -- | Low -- °F
Precip. -- in
Pressure 29.99 in
Visibility 10.0 miles
Clouds Mostly Cloudy 6000 ft
Mostly Cloudy 7500 ft
Overcast 9000 ft
Dew Point 61 °F
Humidity 85%
Rainfall 0.00 in
Snow Depth Not available.
6:36 AM 8:38 PM
Waxing Crescent, 18% visible
METAR KSJT 290851Z 01006KT 10SM BKN060 BKN075 OVC090 21/15 A3005 RMK AO2 SLP154 T02060150 56010 $
Pressure 29.99 in
Visibility 10.0 miles
Clouds Mostly Cloudy 6000 ft
Mostly Cloudy 7500 ft
Overcast 9000 ft
Dew Point 61 °F
Humidity 85%
Rainfall 0.00 in
Snow Depth Not available.
6:36 AM 8:38 PM
Waxing Crescent, 18% visible
METAR KSJT 290851Z 01006KT 10SM BKN060 BKN075 OVC090 21/15 A3005 RMK AO2 SLP154 T02060150 56010 $

Get Severe Weather Alerts

Thanks for signing up!

Be on the lookout for a verification email in your inbox.

You'll start receiving the daily forecast at 6 AM.

×

10-Day Weather Forecast

Almanac

Astronomy

May. 29, 2017 Rise Set
Actual Time
Civil Twilight
Nautical Twilight
Astronomical Twilight
Moon
Length of Visible Light
Length of Day
Tomorrow will be .
, % of the Moon is Illuminated

Today's Extremes

State Highs State Lows

Community

WunderPhotos

Category 6

Welcome to Category 6. This is the collective home for Weather Underground's featured writeups by Dr. Jeff Masters (right), Bob Henson (left), Chris Burt, and other regular contributors.

Nearby

Air Quality

  Air Quality AQ Index Pollutant
Not available.

Snow Depth

Station Depth Elevation

Earthquake Activity

City Distance Mag. Time & Date
Minimum magnitude displayed is 2.5.

Coastal Water Temperatures

Place Temperature

Stations

Nearby Weather Stations

Station Location Temp. Windchill Dew Point Humidity Wind Precip. Elev Updated Type
                   

Watches & Warnings

There are currently no watches in effect.